Time;durP1;ratioP1;P1;durP2;ratioP2;P2;SDS_P1;SDS_P2;PMS_P1;PMS_P2;Temp;Humidity;BMP_temperature;BMP_pressure;BME280_temperature;BME280_humidity;BME280_pressure;Samples;Min_cycle;Max_cycle;Signal;HPM_P1;HPM_P2
2024/01/11 00:00:23;;;;;;;27.85;11.23;;;;;;;;;;5089129;28;20030;-45
2024/01/11 00:02:49;;;;;;;28.60;12.30;;;;;;;;;;5084638;28;20046;-52
2024/01/11 00:05:16;;;;;;;24.67;11.38;;;;;;;;;;5084104;28;20047;-61
2024/01/11 00:07:43;;;;;;;58.17;13.80;;;;;;;;;;5092357;28;20042;-45
2024/01/11 00:10:10;;;;;;;25.23;11.63;;;;;;;;;;5095261;28;20059;-55
2024/01/11 00:12:36;;;;;;;22.33;10.85;;;;;;;;;;5084148;28;20086;-51
2024/01/11 00:15:03;;;;;;;65.90;14.32;;;;;;;;;;5079064;28;20023;-56
2024/01/11 00:17:29;;;;;;;36.35;12.30;;;;;;;;;;5081581;28;20016;-52
2024/01/11 00:19:56;;;;;;;34.35;12.07;;;;;;;;;;5082560;28;20089;-54
2024/01/11 00:22:23;;;;;;;33.58;12.00;;;;;;;;;;5083562;28;20048;-54
2024/01/11 00:24:49;;;;;;;37.65;12.85;;;;;;;;;;5083156;28;20012;-54
2024/01/11 00:27:16;;;;;;;36.95;12.38;;;;;;;;;;5082819;28;20024;-56
2024/01/11 00:29:43;;;;;;;31.17;11.77;;;;;;;;;;5083765;28;20049;-51
2024/01/11 00:32:10;;;;;;;33.28;11.98;;;;;;;;;;5083290;28;20024;-57
2024/01/11 00:34:36;;;;;;;30.23;11.88;;;;;;;;;;5082129;28;20019;-55
2024/01/11 00:37:09;;;;;;;28.80;11.07;;;;;;;;;;5083818;28;20056;-54
2024/01/11 00:39:35;;;;;;;;;;;;;;;;;;5083769;28;20104;-53
2024/01/11 00:42:01;;;;;;;86.10;13.70;;;;;;;;;;5083602;28;20124;-53
2024/01/11 00:44:31;;;;;;;28.60;11.43;;;;;;;;;;5083729;28;20020;-55
2024/01/11 00:46:57;;;;;;;23.60;11.05;;;;;;;;;;5083920;28;20303;-56
2024/01/11 00:49:24;;;;;;;25.23;10.93;;;;;;;;;;5082588;28;20020;-56
2024/01/11 00:51:51;;;;;;;21.70;10.73;;;;;;;;;;5083774;28;20047;-56
2024/01/11 00:54:17;;;;;;;25.73;10.93;;;;;;;;;;5083645;28;20358;-57
2024/01/11 00:56:44;;;;;;;23.85;10.70;;;;;;;;;;5083553;28;20130;-58
2024/01/11 00:59:10;;;;;;;22.38;10.07;;;;;;;;;;5083776;28;20025;-54
2024/01/11 01:01:37;;;;;;;27.88;10.45;;;;;;;;;;5083419;28;20032;-57
2024/01/11 01:04:03;;;;;;;20.83;10.10;;;;;;;;;;5083599;28;20012;-57
2024/01/11 01:06:30;;;;;;;15.88;10.48;;;;;;;;;;5083387;28;20186;-56
2024/01/11 01:08:57;;;;;;;25.25;10.98;;;;;;;;;;5083434;28;20343;-57
2024/01/11 01:11:23;;;;;;;39.40;11.13;;;;;;;;;;5082191;28;20061;-54
2024/01/11 01:13:50;;;;;;;30.23;11.05;;;;;;;;;;5082099;28;20020;-53
2024/01/11 01:16:17;;;;;;;55.92;12.80;;;;;;;;;;5083279;28;20008;-58
2024/01/11 01:18:44;;;;;;;38.85;12.48;;;;;;;;;;5083410;28;20013;-56
2024/01/11 01:21:10;;;;;;;40.42;12.77;;;;;;;;;;5083186;28;20020;-57
2024/01/11 01:23:37;;;;;;;40.70;12.80;;;;;;;;;;5082379;28;20220;-57
2024/01/11 01:26:04;;;;;;;46.67;12.77;;;;;;;;;;5083473;28;20040;-60
2024/01/11 01:28:30;;;;;;;58.85;12.02;;;;;;;;;;5083500;28;20031;-57
2024/01/11 01:30:57;;;;;;;61.58;13.25;;;;;;;;;;5083351;28;20032;-54
2024/01/11 01:33:24;;;;;;;44.10;12.10;;;;;;;;;;5083692;28;20044;-60
2024/01/11 01:35:50;;;;;;;62.08;13.13;;;;;;;;;;5083063;28;20256;-58
2024/01/11 01:38:17;;;;;;;33.15;10.63;;;;;;;;;;5083163;28;20056;-57
2024/01/11 01:40:44;;;;;;;46.85;12.23;;;;;;;;;;5083154;28;20084;-56
2024/01/11 01:43:10;;;;;;;32.00;10.93;;;;;;;;;;5083378;28;20039;-56
2024/01/11 01:45:37;;;;;;;56.63;12.68;;;;;;;;;;5083147;28;20370;-60
2024/01/11 01:48:04;;;;;;;42.65;11.55;;;;;;;;;;5081784;28;20220;-58
2024/01/11 01:50:31;;;;;;;49.22;12.32;;;;;;;;;;5082905;28;20244;-59
2024/01/11 01:52:58;;;;;;;28.63;10.32;;;;;;;;;;5084524;28;20029;-55
2024/01/11 01:55:26;;;;;;;41.05;12.25;;;;;;;;;;5087830;28;20045;-53
2024/01/11 01:57:52;;;;;;;36.30;10.75;;;;;;;;;;5100012;28;20027;-47
2024/01/11 02:00:19;;;;;;;26.30;10.88;;;;;;;;;;5105590;28;20024;-58
2024/01/11 02:02:46;;;;;;;23.05;10.55;;;;;;;;;;5095635;28;20059;-53
2024/01/11 02:05:14;;;;;;;17.42;9.95;;;;;;;;;;5086356;28;20024;-50
2024/01/11 02:07:43;;;;;;;17.10;10.35;;;;;;;;;;5086721;28;20028;-58
2024/01/11 02:10:10;;;;;;;23.17;10.38;;;;;;;;;;5086335;28;20016;-48
2024/01/11 02:12:40;;;;;;;24.13;10.45;;;;;;;;;;5075018;28;20025;-53
2024/01/11 02:15:06;;;;;;;22.65;10.95;;;;;;;;;;5085382;28;20020;-64
2024/01/11 02:17:33;;;;;;;22.63;11.48;;;;;;;;;;5086669;28;20052;-52
2024/01/11 02:20:03;;;;;;;28.23;11.23;;;;;;;;;;5073579;28;20245;-55
2024/01/11 02:22:33;;;;;;;29.75;10.52;;;;;;;;;;5075105;28;20017;-56
2024/01/11 02:24:59;;;;;;;16.70;10.57;;;;;;;;;;5078625;28;20091;-52
2024/01/11 02:27:26;;;;;;;16.60;9.80;;;;;;;;;;5067271;28;20300;-56
2024/01/11 02:29:52;;;;;;;17.00;10.55;;;;;;;;;;5065919;28;20017;-56
2024/01/11 02:32:19;;;;;;;14.27;9.75;;;;;;;;;;5065992;28;20080;-53
2024/01/11 02:34:46;;;;;;;15.70;10.18;;;;;;;;;;5065954;28;20213;-61
2024/01/11 02:37:13;;;;;;;12.90;9.95;;;;;;;;;;5087458;28;20360;-52
2024/01/11 02:39:40;;;;;;;19.10;10.57;;;;;;;;;;5074773;28;20182;-55
2024/01/11 02:42:10;;;;;;;21.00;10.38;;;;;;;;;;5065685;28;20025;-52
2024/01/11 02:44:36;;;;;;;15.38;10.13;;;;;;;;;;5074442;28;20316;-48
2024/01/11 02:47:03;;;;;;;14.77;10.43;;;;;;;;;;5085798;28;20036;-49
2024/01/11 02:49:29;;;;;;;18.23;10.43;;;;;;;;;;5079162;28;20028;-51
2024/01/11 02:51:59;;;;;;;15.88;10.07;;;;;;;;;;5070727;28;20021;-52
2024/01/11 02:54:26;;;;;;;14.48;10.23;;;;;;;;;;5065663;28;20012;-52
2024/01/11 02:56:52;;;;;;;14.27;10.20;;;;;;;;;;5068445;28;20025;-53
2024/01/11 02:59:19;;;;;;;11.63;9.82;;;;;;;;;;5080737;28;20048;-55
2024/01/11 03:01:46;;;;;;;11.00;9.90;;;;;;;;;;5065394;28;20055;-52
2024/01/11 03:04:14;;;;;;;14.07;9.98;;;;;;;;;;5080546;28;20025;-56
2024/01/11 03:06:40;;;;;;;14.57;10.00;;;;;;;;;;5065270;28;20017;-52
2024/01/11 03:09:07;;;;;;;16.98;10.00;;;;;;;;;;5065356;28;20025;-48
2024/01/11 03:11:33;;;;;;;14.45;9.95;;;;;;;;;;5065360;28;20017;-50
2024/01/11 03:14:01;;;;;;;11.77;9.65;;;;;;;;;;5065323;28;20198;-52
2024/01/11 03:16:28;;;;;;;11.43;9.73;;;;;;;;;;5066231;28;20297;-48
2024/01/11 03:18:54;;;;;;;18.50;10.30;;;;;;;;;;5080411;28;20024;-50
2024/01/11 03:21:21;;;;;;;12.40;9.35;;;;;;;;;;5076395;28;20020;-54
2024/01/11 03:23:47;;;;;;;15.82;9.98;;;;;;;;;;5077964;28;20098;-50
2024/01/11 03:26:15;;;;;;;12.95;10.27;;;;;;;;;;5073703;28;20017;-54
2024/01/11 03:28:41;;;;;;;14.60;10.10;;;;;;;;;;5075762;28;20036;-53
2024/01/11 03:31:09;;;;;;;14.85;8.95;;;;;;;;;;5090958;28;20304;-52
2024/01/11 03:33:35;;;;;;;11.70;9.60;;;;;;;;;;5087655;28;20029;-52
2024/01/11 03:36:08;;;;;;;16.23;10.32;;;;;;;;;;5084717;28;20312;-52
2024/01/11 03:38:35;;;;;;;12.25;10.35;;;;;;;;;;5084483;28;20048;-49
2024/01/11 03:41:02;;;;;;;12.88;9.27;;;;;;;;;;5084238;28;20038;-50
2024/01/11 03:43:29;;;;;;;12.93;9.90;;;;;;;;;;5085036;28;20036;-53
2024/01/11 03:45:55;;;;;;;17.35;9.82;;;;;;;;;;5083615;28;20020;-48
2024/01/11 03:48:22;;;;;;;16.05;9.93;;;;;;;;;;5084663;28;20094;-54
2024/01/11 03:50:48;;;;;;;13.57;10.13;;;;;;;;;;5084544;28;20013;-54
2024/01/11 03:53:15;;;;;;;16.55;9.90;;;;;;;;;;5090195;28;20029;-49
2024/01/11 03:55:42;;;;;;;18.40;10.23;;;;;;;;;;5101418;28;20043;-48
2024/01/11 03:58:08;;;;;;;16.13;9.38;;;;;;;;;;5105054;28;20141;-50
2024/01/11 04:00:35;;;;;;;22.15;10.10;;;;;;;;;;5104524;28;20020;-51
2024/01/11 04:03:02;;;;;;;21.02;11.05;;;;;;;;;;5104766;28;20054;-53
2024/01/11 04:05:28;;;;;;;16.08;10.52;;;;;;;;;;5104763;28;20031;-47
2024/01/11 04:07:55;;;;;;;16.88;9.90;;;;;;;;;;5101803;28;20044;-53
2024/01/11 04:10:21;;;;;;;14.10;10.18;;;;;;;;;;5093038;28;20016;-54
2024/01/11 04:12:48;;;;;;;17.38;9.85;;;;;;;;;;5084302;28;20084;-49
2024/01/11 04:15:15;;;;;;;13.38;9.52;;;;;;;;;;5083288;28;20030;-55
2024/01/11 04:17:41;;;;;;;14.25;9.45;;;;;;;;;;5091728;28;20075;-59
2024/01/11 04:20:08;;;;;;;18.15;9.70;;;;;;;;;;5104101;28;20019;-48
2024/01/11 04:22:35;;;;;;;16.65;10.10;;;;;;;;;;5103151;28;20216;-52
2024/01/11 04:25:01;;;;;;;12.23;9.45;;;;;;;;;;5098421;28;20065;-52
2024/01/11 04:27:28;;;;;;;11.77;9.57;;;;;;;;;;5092855;28;20029;-50
2024/01/11 04:29:55;;;;;;;13.30;9.95;;;;;;;;;;5084012;28;20346;-47
2024/01/11 04:32:21;;;;;;;13.50;9.55;;;;;;;;;;5084131;28;20271;-56
2024/01/11 04:34:48;;;;;;;15.25;10.05;;;;;;;;;;5083734;28;20025;-48
2024/01/11 04:37:14;;;;;;;10.38;8.88;;;;;;;;;;5083610;28;20028;-49
2024/01/11 04:39:41;;;;;;;10.93;9.73;;;;;;;;;;5088810;28;20025;-49
2024/01/11 04:42:08;;;;;;;19.63;10.48;;;;;;;;;;5102273;28;20031;-50
2024/01/11 04:44:37;;;;;;;17.58;10.52;;;;;;;;;;5104053;28;20040;-51
2024/01/11 04:47:04;;;;;;;14.25;10.30;;;;;;;;;;5087504;28;20036;-49
2024/01/11 04:49:30;;;;;;;13.45;10.32;;;;;;;;;;5070924;28;20025;-49
2024/01/11 04:51:57;;;;;;;15.75;10.45;;;;;;;;;;5063867;28;20033;-48
2024/01/11 04:54:23;;;;;;;12.32;10.15;;;;;;;;;;5063610;28;20174;-53
2024/01/11 04:56:50;;;;;;;15.82;10.38;;;;;;;;;;5063490;28;20048;-49
2024/01/11 04:59:17;;;;;;;13.30;10.07;;;;;;;;;;5063631;28;20045;-58
2024/01/11 05:01:43;;;;;;;12.32;9.93;;;;;;;;;;5063673;28;20055;-53
2024/01/11 05:04:10;;;;;;;11.95;9.55;;;;;;;;;;5063409;28;20025;-51
2024/01/11 05:06:36;;;;;;;12.18;10.10;;;;;;;;;;5063621;28;20100;-53
2024/01/11 05:09:04;;;;;;;11.13;9.63;;;;;;;;;;5078962;28;20194;-51
2024/01/11 05:11:31;;;;;;;11.07;9.98;;;;;;;;;;5063274;28;20076;-47
2024/01/11 05:13:57;;;;;;;10.82;9.73;;;;;;;;;;5063369;28;20017;-49
2024/01/11 05:16:25;;;;;;;14.30;10.05;;;;;;;;;;5063621;28;20039;-48
2024/01/11 05:18:52;;;;;;;12.05;10.27;;;;;;;;;;5063236;28;20029;-53
2024/01/11 05:21:18;;;;;;;11.45;9.73;;;;;;;;;;5063265;28;20024;-52
2024/01/11 05:23:45;;;;;;;12.82;10.23;;;;;;;;;;5063357;28;20209;-48
2024/01/11 05:26:12;;;;;;;14.20;10.13;;;;;;;;;;5063436;28;20021;-53
2024/01/11 05:28:39;;;;;;;14.80;10.00;;;;;;;;;;5067458;28;20171;-58
2024/01/11 05:31:10;;;;;;;11.93;9.70;;;;;;;;;;5067181;28;20016;-53
2024/01/11 05:33:37;;;;;;;17.95;10.30;;;;;;;;;;5067445;28;20029;-51
2024/01/11 05:36:03;;;;;;;12.90;10.27;;;;;;;;;;5067121;28;20017;-53
2024/01/11 05:38:30;;;;;;;15.90;10.18;;;;;;;;;;5067020;28;20052;-51
2024/01/11 05:40:57;;;;;;;10.48;9.38;;;;;;;;;;5066721;28;20280;-51
2024/01/11 05:43:24;;;;;;;11.40;9.60;;;;;;;;;;5067242;28;20028;-51
2024/01/11 05:45:50;;;;;;;10.05;8.63;;;;;;;;;;5066845;28;20032;-54
2024/01/11 05:48:18;;;;;;;11.90;9.73;;;;;;;;;;5066492;28;20033;-50
2024/01/11 05:50:45;;;;;;;12.43;9.88;;;;;;;;;;5066751;28;20044;-48
2024/01/11 05:53:14;;;;;;;12.90;9.98;;;;;;;;;;5067113;28;20020;-48
2024/01/11 05:55:41;;;;;;;14.10;9.88;;;;;;;;;;5066461;28;20032;-53
2024/01/11 05:58:07;;;;;;;11.50;9.60;;;;;;;;;;5067029;28;20028;-59
2024/01/11 06:00:34;;;;;;;12.30;9.43;;;;;;;;;;5066516;28;20071;-51
2024/01/11 06:03:01;;;;;;;10.63;9.23;;;;;;;;;;5066780;28;20048;-52
2024/01/11 06:05:27;;;;;;;12.05;9.82;;;;;;;;;;5066354;28;20099;-54
2024/01/11 06:07:54;;;;;;;12.88;9.60;;;;;;;;;;5066684;28;20031;-55
2024/01/11 06:10:21;;;;;;;12.35;9.48;;;;;;;;;;5066311;28;20021;-51
2024/01/11 06:12:47;;;;;;;14.23;9.85;;;;;;;;;;5066559;28;20021;-55
2024/01/11 06:15:14;;;;;;;10.80;9.60;;;;;;;;;;5066224;28;20028;-52
2024/01/11 06:17:40;;;;;;;12.93;9.63;;;;;;;;;;5066485;28;20016;-49
2024/01/11 06:20:07;;;;;;;10.80;9.30;;;;;;;;;;5066038;28;20041;-48
2024/01/11 06:22:34;;;;;;;10.70;9.60;;;;;;;;;;5066368;28;20359;-54
2024/01/11 06:25:00;;;;;;;11.13;9.48;;;;;;;;;;5066302;28;20075;-50
2024/01/11 06:27:27;;;;;;;13.23;9.82;;;;;;;;;;5065935;28;20032;-48
2024/01/11 06:29:54;;;;;;;12.85;10.02;;;;;;;;;;5066290;28;20078;-50
2024/01/11 06:32:21;;;;;;;11.40;9.38;;;;;;;;;;5065823;28;20212;-56
2024/01/11 06:34:48;;;;;;;10.93;9.52;;;;;;;;;;5065772;28;20024;-51
2024/01/11 06:37:14;;;;;;;13.27;9.88;;;;;;;;;;5065419;28;20028;-50
2024/01/11 06:39:41;;;;;;;11.30;9.50;;;;;;;;;;5066033;28;20234;-51
2024/01/11 06:42:08;;;;;;;10.68;9.57;;;;;;;;;;5065729;28;20366;-49
2024/01/11 06:44:34;;;;;;;10.43;9.30;;;;;;;;;;5065693;28;20329;-49
2024/01/11 06:47:03;;;;;;;12.52;9.82;;;;;;;;;;5065828;28;20025;-56
2024/01/11 06:49:29;;;;;;;10.13;9.18;;;;;;;;;;5069928;28;20029;-54
2024/01/11 06:51:56;;;;;;;10.48;9.05;;;;;;;;;;5073881;28;20029;-50
2024/01/11 06:54:23;;;;;;;12.52;9.20;;;;;;;;;;5085556;28;20204;-50
2024/01/11 06:56:49;;;;;;;10.98;8.65;;;;;;;;;;5085493;28;20215;-49
2024/01/11 06:59:16;;;;;;;9.80;8.90;;;;;;;;;;5085390;28;20027;-48
2024/01/11 07:01:42;;;;;;;9.88;8.88;;;;;;;;;;5085422;28;20102;-48
2024/01/11 07:04:09;;;;;;;9.45;8.45;;;;;;;;;;5085215;28;20027;-51
2024/01/11 07:06:35;;;;;;;9.48;8.57;;;;;;;;;;5085443;28;20055;-55
2024/01/11 07:09:02;;;;;;;10.10;8.65;;;;;;;;;;5083023;28;20020;-48
2024/01/11 07:11:29;;;;;;;10.13;8.35;;;;;;;;;;5078380;28;20016;-55
2024/01/11 07:13:55;;;;;;;11.20;8.50;;;;;;;;;;5081658;28;20042;-48
2024/01/11 07:16:22;;;;;;;8.77;7.97;;;;;;;;;;5073858;28;20027;-57
2024/01/11 07:18:48;;;;;;;8.90;7.82;;;;;;;;;;5064949;28;20028;-56
2024/01/11 07:21:21;;;;;;;9.15;8.00;;;;;;;;;;5064971;28;20063;-50
2024/01/11 07:23:47;;;;;;;;;;;;;;;;;;5065364;28;20131;-49
2024/01/11 07:26:13;;;;;;;8.98;8.05;;;;;;;;;;5064843;28;19907;-54
2024/01/11 07:28:40;;;;;;;10.82;7.85;;;;;;;;;;5064680;28;20247;-53
2024/01/11 07:31:06;;;;;;;8.43;7.50;;;;;;;;;;5064772;28;20055;-48
2024/01/11 07:33:33;;;;;;;9.55;7.60;;;;;;;;;;5065097;28;20025;-50
2024/01/11 07:36:00;;;;;;;8.55;7.38;;;;;;;;;;5064810;28;20029;-54
2024/01/11 07:38:26;;;;;;;9.25;8.35;;;;;;;;;;5064738;28;20108;-47
2024/01/11 07:40:53;;;;;;;10.93;7.85;;;;;;;;;;5064622;28;20025;-54
2024/01/11 07:43:19;;;;;;;9.07;7.32;;;;;;;;;;5065012;28;20036;-50
2024/01/11 07:45:46;;;;;;;8.25;7.53;;;;;;;;;;5064804;28;20021;-46
2024/01/11 07:48:13;;;;;;;11.60;7.63;;;;;;;;;;5064823;28;20044;-47
2024/01/11 07:50:39;;;;;;;8.52;7.53;;;;;;;;;;5063546;28;20080;-51
2024/01/11 07:53:06;;;;;;;12.82;7.38;;;;;;;;;;5064896;28;20031;-49
2024/01/11 07:55:32;;;;;;;8.63;7.82;;;;;;;;;;5064385;28;20058;-51
2024/01/11 07:57:59;;;;;;;12.13;7.60;;;;;;;;;;5064502;28;20053;-52
2024/01/11 08:00:26;;;;;;;8.43;6.80;;;;;;;;;;5064315;28;20025;-51
2024/01/11 08:02:54;;;;;;;12.35;7.07;;;;;;;;;;5064646;28;20054;-53
2024/01/11 08:05:21;;;;;;;10.40;7.35;;;;;;;;;;5064024;28;20070;-53
2024/01/11 08:07:47;;;;;;;9.52;7.00;;;;;;;;;;5064327;28;20039;-52
2024/01/11 08:10:14;;;;;;;7.50;6.75;;;;;;;;;;5064217;28;20017;-51
2024/01/11 08:12:40;;;;;;;8.18;7.35;;;;;;;;;;5064224;28;20096;-48
2024/01/11 08:15:12;;;;;;;7.53;6.82;;;;;;;;;;5064180;28;20017;-53
2024/01/11 08:17:39;;;;;;;7.90;7.10;;;;;;;;;;5064270;28;20228;-53
2024/01/11 08:20:09;;;;;;;8.90;7.25;;;;;;;;;;5063810;28;20071;-48
2024/01/11 08:22:37;;;;;;;8.40;6.95;;;;;;;;;;5064297;28;20025;-51
2024/01/11 08:25:04;;;;;;;8.23;6.80;;;;;;;;;;5063918;28;20084;-48
2024/01/11 08:27:31;;;;;;;8.25;7.43;;;;;;;;;;5063905;28;20044;-47
2024/01/11 08:30:00;;;;;;;7.70;6.85;;;;;;;;;;5063915;28;20028;-48
2024/01/11 08:32:26;;;;;;;9.27;7.15;;;;;;;;;;5063988;28;20025;-53
2024/01/11 08:34:53;;;;;;;10.02;7.75;;;;;;;;;;5063794;28;20021;-48
2024/01/11 08:37:20;;;;;;;7.63;6.93;;;;;;;;;;5071127;28;20036;-51
2024/01/11 08:39:46;;;;;;;11.05;7.47;;;;;;;;;;5069878;28;20020;-49
2024/01/11 08:42:15;;;;;;;8.95;7.63;;;;;;;;;;5083782;28;20043;-52
2024/01/11 08:44:42;;;;;;;7.90;7.10;;;;;;;;;;5083727;28;20027;-48
2024/01/11 08:47:09;;;;;;;7.68;6.97;;;;;;;;;;5083943;28;20025;-47
2024/01/11 08:49:42;;;;;;;8.63;6.65;;;;;;;;;;5083883;28;20020;-51
2024/01/11 08:52:08;;;;;;;7.47;6.78;;;;;;;;;;5083809;28;20032;-53
2024/01/11 08:54:35;;;;;;;10.63;6.90;;;;;;;;;;5083617;28;20016;-53
2024/01/11 08:57:03;;;;;;;14.52;7.80;;;;;;;;;;5083802;28;20056;-49
2024/01/11 08:59:29;;;;;;;10.45;7.55;;;;;;;;;;5083607;28;20027;-53
2024/01/11 09:01:56;;;;;;;9.98;7.05;;;;;;;;;;5086531;28;20031;-51
2024/01/11 09:04:22;;;;;;;8.70;7.68;;;;;;;;;;5087779;28;20032;-50
2024/01/11 09:06:49;;;;;;;8.20;7.20;;;;;;;;;;5087771;28;20028;-48
2024/01/11 09:09:16;;;;;;;10.13;7.45;;;;;;;;;;5087880;28;20019;-47
2024/01/11 09:11:43;;;;;;;11.30;7.75;;;;;;;;;;5087507;28;20081;-47
2024/01/11 09:14:11;;;;;;;8.57;6.90;;;;;;;;;;5087592;28;20021;-54
2024/01/11 09:16:39;;;;;;;8.05;7.25;;;;;;;;;;5087495;28;20092;-50
2024/01/11 09:19:06;;;;;;;8.77;6.68;;;;;;;;;;5087493;28;20031;-48
2024/01/11 09:21:32;;;;;;;8.70;7.32;;;;;;;;;;5087391;28;20313;-52
2024/01/11 09:23:59;;;;;;;11.20;7.28;;;;;;;;;;5087744;28;20246;-53
2024/01/11 09:26:25;;;;;;;9.68;7.20;;;;;;;;;;5087034;28;20228;-50
2024/01/11 09:28:52;;;;;;;7.53;6.75;;;;;;;;;;5087168;28;20024;-46
2024/01/11 09:31:18;;;;;;;8.00;6.40;;;;;;;;;;5087124;28;20084;-47
2024/01/11 09:33:45;;;;;;;8.35;6.88;;;;;;;;;;5086989;28;20047;-49
2024/01/11 09:36:12;;;;;;;8.57;6.78;;;;;;;;;;5087123;28;20023;-48
2024/01/11 09:38:39;;;;;;;8.55;7.00;;;;;;;;;;5086949;28;20091;-54
2024/01/11 09:41:09;;;;;;;9.77;6.90;;;;;;;;;;5086872;28;20016;-55
2024/01/11 09:43:36;;;;;;;7.90;6.47;;;;;;;;;;5087347;28;20025;-52
2024/01/11 09:46:06;;;;;;;8.05;6.93;;;;;;;;;;5086910;28;20020;-49
2024/01/11 09:48:37;;;;;;;7.75;7.05;;;;;;;;;;5087131;28;20253;-53
2024/01/11 09:51:03;;;;;;;8.38;7.10;;;;;;;;;;5086775;28;20016;-59
2024/01/11 09:53:33;;;;;;;11.68;7.25;;;;;;;;;;5085781;28;20243;-54
2024/01/11 09:56:00;;;;;;;11.13;6.55;;;;;;;;;;5084984;28;20020;-50
2024/01/11 09:58:27;;;;;;;7.78;6.60;;;;;;;;;;5085340;28;20028;-55
2024/01/11 10:00:55;;;;;;;9.50;6.68;;;;;;;;;;5084803;28;20020;-56
2024/01/11 10:03:24;;;;;;;8.18;6.38;;;;;;;;;;5085353;28;20308;-56
2024/01/11 10:05:51;;;;;;;8.75;6.28;;;;;;;;;;5084752;28;20028;-48
2024/01/11 10:08:22;;;;;;;7.22;6.50;;;;;;;;;;5085800;28;20092;-53
2024/01/11 10:10:49;;;;;;;6.80;6.10;;;;;;;;;;5085672;28;20016;-53
2024/01/11 10:13:16;;;;;;;8.45;6.47;;;;;;;;;;5085599;28;20025;-52
2024/01/11 10:15:43;;;;;;;10.25;6.60;;;;;;;;;;5086238;28;20020;-48
2024/01/11 10:18:10;;;;;;;8.68;6.47;;;;;;;;;;5086647;28;20059;-52
2024/01/11 10:20:37;;;;;;;10.95;6.65;;;;;;;;;;5085946;28;20028;-49
2024/01/11 10:23:04;;;;;;;9.40;6.75;;;;;;;;;;5086388;28;20025;-52
2024/01/11 10:25:31;;;;;;;8.90;6.43;;;;;;;;;;5086289;28;20027;-48
2024/01/11 10:27:57;;;;;;;11.52;6.20;;;;;;;;;;5086248;28;20102;-48
2024/01/11 10:30:26;;;;;;;7.95;6.25;;;;;;;;;;5085917;28;20047;-53
2024/01/11 10:32:52;;;;;;;6.75;6.00;;;;;;;;;;5091203;28;20194;-52
2024/01/11 10:35:19;;;;;;;9.68;6.32;;;;;;;;;;5073332;28;20040;-47
2024/01/11 10:37:45;;;;;;;9.88;6.03;;;;;;;;;;5085887;28;20114;-48
2024/01/11 10:40:12;;;;;;;7.72;6.35;;;;;;;;;;5086023;28;20038;-54
2024/01/11 10:42:43;;;;;;;12.93;6.60;;;;;;;;;;5086076;28;20051;-49
2024/01/11 10:45:20;;;;;;;9.95;6.70;;;;;;;;;;5085581;28;20012;-51
2024/01/11 10:47:46;;;;;;;10.65;6.28;;;;;;;;;;5084591;28;20028;-53
2024/01/11 10:50:13;;;;;;;9.45;6.40;;;;;;;;;;5085760;28;20205;-51
2024/01/11 10:52:44;;;;;;;8.93;6.15;;;;;;;;;;5085808;28;20027;-52
2024/01/11 10:55:11;;;;;;;26.83;7.78;;;;;;;;;;5085543;28;20024;-52
2024/01/11 10:57:39;;;;;;;23.52;8.82;;;;;;;;;;5085743;28;20027;-50
2024/01/11 11:00:06;;;;;;;14.55;9.13;;;;;;;;;;5085307;28;20020;-52
2024/01/11 11:02:34;;;;;;;19.23;10.10;;;;;;;;;;5085740;28;20084;-53
2024/01/11 11:05:04;;;;;;;33.90;11.93;;;;;;;;;;5084686;28;20044;-48
2024/01/11 11:07:31;;;;;;;18.77;9.88;;;;;;;;;;5074706;28;20033;-49
2024/01/11 11:09:59;;;;;;;17.08;10.05;;;;;;;;;;5076475;28;20343;-50
2024/01/11 11:12:26;;;;;;;27.77;8.45;;;;;;;;;;5098081;28;20348;-47
2024/01/11 11:14:53;;;;;;;15.38;7.70;;;;;;;;;;5105320;28;20096;-49
2024/01/11 11:17:20;;;;;;;25.95;7.72;;;;;;;;;;5105521;28;20028;-53
2024/01/11 11:19:46;;;;;;;16.60;7.55;;;;;;;;;;5104966;28;20319;-47
2024/01/11 11:22:15;;;;;;;17.48;7.38;;;;;;;;;;5105536;28;20050;-48
2024/01/11 11:24:42;;;;;;;60.05;10.43;;;;;;;;;;5095512;28;20020;-48
2024/01/11 11:27:08;;;;;;;96.15;14.45;;;;;;;;;;5082511;28;20027;-54
2024/01/11 11:29:35;;;;;;;69.03;11.75;;;;;;;;;;5098225;28;20020;-57
2024/01/11 11:32:04;;;;;;;46.78;9.88;;;;;;;;;;5103360;28;20027;-58
2024/01/11 11:34:52;;;;;;;39.88;9.88;;;;;;;;;;5105008;28;20047;-50
2024/01/11 11:37:24;;;;;;;32.58;9.07;;;;;;;;;;5102789;28;20054;-49
2024/01/11 11:39:51;;;;;;;21.45;8.63;;;;;;;;;;5094343;28;20028;-49
2024/01/11 11:42:18;;;;;;;23.90;8.82;;;;;;;;;;5093869;28;20035;-50
2024/01/11 11:44:51;;;;;;;26.05;9.25;;;;;;;;;;5084228;28;20040;-54
2024/01/11 11:47:22;;;;;;;35.47;9.18;;;;;;;;;;5098320;28;20063;-55
2024/01/11 11:49:59;;;;;;;21.50;8.73;;;;;;;;;;5090031;28;20027;-53
2024/01/11 11:52:26;;;;;;;20.27;7.80;;;;;;;;;;5070762;28;20021;-55
2024/01/11 11:54:53;;;;;;;31.75;8.30;;;;;;;;;;5090638;28;20016;-49
2024/01/11 11:57:20;;;;;;;22.10;8.02;;;;;;;;;;5097406;28;20091;-48
2024/01/11 11:59:47;;;;;;;20.60;8.25;;;;;;;;;;5092867;28;20032;-48
2024/01/11 12:02:17;;;;;;;22.88;7.93;;;;;;;;;;5086751;28;20066;-52
2024/01/11 12:04:48;;;;;;;16.67;7.35;;;;;;;;;;5084113;28;20074;-50
2024/01/11 12:07:15;;;;;;;21.15;7.20;;;;;;;;;;5093995;28;20036;-55
2024/01/11 12:09:42;;;;;;;22.77;7.28;;;;;;;;;;5104469;28;20015;-51
2024/01/11 12:12:09;;;;;;;15.75;7.32;;;;;;;;;;5104654;28;20020;-54
2024/01/11 12:14:36;;;;;;;26.35;7.88;;;;;;;;;;5104208;28;20022;-54
2024/01/11 12:17:02;;;;;;;17.95;7.10;;;;;;;;;;5104343;28;20023;-48
2024/01/11 12:19:29;;;;;;;13.43;6.90;;;;;;;;;;5104300;28;20031;-47
2024/01/11 12:21:56;;;;;;;12.05;7.30;;;;;;;;;;5104452;28;20027;-50
2024/01/11 12:24:23;;;;;;;19.05;8.32;;;;;;;;;;5104340;28;20035;-48
2024/01/11 12:26:50;;;;;;;19.15;8.15;;;;;;;;;;5095785;28;20308;-48
2024/01/11 12:29:21;;;;;;;18.00;7.38;;;;;;;;;;5083671;28;20021;-46
2024/01/11 12:31:48;;;;;;;15.60;7.53;;;;;;;;;;5083846;28;20052;-55
2024/01/11 12:34:14;;;;;;;30.52;8.18;;;;;;;;;;5083952;28;20027;-54
2024/01/11 12:36:41;;;;;;;21.60;8.02;;;;;;;;;;5103315;28;20053;-49
2024/01/11 12:39:09;;;;;;;16.63;7.50;;;;;;;;;;5103815;28;20054;-54
2024/01/11 12:41:36;;;;;;;24.10;7.55;;;;;;;;;;5104018;28;20087;-52
2024/01/11 12:44:03;;;;;;;20.40;7.22;;;;;;;;;;5103828;28;20031;-48
2024/01/11 12:46:30;;;;;;;19.60;7.75;;;;;;;;;;5100313;28;20313;-50
2024/01/11 12:48:56;;;;;;;18.63;7.28;;;;;;;;;;5083690;28;20028;-49
2024/01/11 12:51:24;;;;;;;20.30;6.97;;;;;;;;;;5083506;28;20364;-56
2024/01/11 12:53:52;;;;;;;16.35;7.30;;;;;;;;;;5083661;28;20024;-56
2024/01/11 12:56:21;;;;;;;15.30;6.97;;;;;;;;;;5083487;28;20020;-50
2024/01/11 12:58:48;;;;;;;19.73;7.13;;;;;;;;;;5083376;28;20027;-48
2024/01/11 13:01:15;;;;;;;18.95;8.13;;;;;;;;;;5083500;28;20024;-55
2024/01/11 13:03:45;;;;;;;18.60;8.82;;;;;;;;;;5083732;28;20028;-51
2024/01/11 13:06:13;;;;;;;16.35;7.70;;;;;;;;;;5083455;28;20028;-49
2024/01/11 13:08:41;;;;;;;16.42;7.22;;;;;;;;;;5083416;28;20028;-49
2024/01/11 13:11:09;;;;;;;13.57;7.43;;;;;;;;;;5083446;28;20021;-54
2024/01/11 13:13:36;;;;;;;17.88;7.85;;;;;;;;;;5083780;28;20029;-55
2024/01/11 13:16:08;;;;;;;15.13;7.80;;;;;;;;;;5083547;28;20024;-54
2024/01/11 13:18:35;;;;;;;13.30;7.72;;;;;;;;;;5103219;28;20312;-57
2024/01/11 13:21:02;;;;;;;16.02;8.18;;;;;;;;;;5103526;28;20055;-52
2024/01/11 13:23:29;;;;;;;27.73;8.68;;;;;;;;;;5104091;28;20036;-55
2024/01/11 13:25:55;;;;;;;25.98;9.15;;;;;;;;;;5103708;28;20015;-56
2024/01/11 13:28:22;;;;;;;26.63;8.68;;;;;;;;;;5090142;28;20031;-58
2024/01/11 13:30:49;;;;;;;18.35;7.90;;;;;;;;;;5095066;28;20235;-57
2024/01/11 13:33:17;;;;;;;19.52;7.97;;;;;;;;;;5087045;28;20410;-56
2024/01/11 13:35:44;;;;;;;14.02;7.72;;;;;;;;;;5083333;28;20020;-49
2024/01/11 13:38:11;;;;;;;22.88;8.18;;;;;;;;;;5083171;28;20052;-51
2024/01/11 13:40:39;;;;;;;13.55;7.40;;;;;;;;;;5083083;28;20086;-50
2024/01/11 13:43:06;;;;;;;14.75;8.20;;;;;;;;;;5082945;28;20170;-55
2024/01/11 13:45:35;;;;;;;15.27;7.72;;;;;;;;;;5083117;28;20029;-55
2024/01/11 13:48:03;;;;;;;17.10;8.35;;;;;;;;;;5084749;28;20028;-54
2024/01/11 13:50:30;;;;;;;10.90;7.35;;;;;;;;;;5106435;28;20022;-47
2024/01/11 13:52:57;;;;;;;21.83;7.85;;;;;;;;;;5107419;28;20024;-51
2024/01/11 13:55:23;;;;;;;18.08;8.00;;;;;;;;;;5106915;28;20257;-47
2024/01/11 13:57:53;;;;;;;16.55;8.15;;;;;;;;;;5107083;28;20096;-51
2024/01/11 14:00:20;;;;;;;18.40;8.27;;;;;;;;;;5106893;28;20016;-51
2024/01/11 14:02:47;;;;;;;15.25;7.80;;;;;;;;;;5107030;28;20020;-49
2024/01/11 14:05:14;;;;;;;14.60;7.50;;;;;;;;;;5090719;28;20020;-55
2024/01/11 14:07:43;;;;;;;16.30;7.53;;;;;;;;;;5086933;28;20028;-57
2024/01/11 14:10:09;;;;;;;22.13;8.18;;;;;;;;;;5085398;28;20055;-55
2024/01/11 14:12:36;;;;;;;19.95;8.45;;;;;;;;;;5086617;28;20024;-57
2024/01/11 14:15:04;;;;;;;16.58;7.78;;;;;;;;;;5084508;28;20042;-57
2024/01/11 14:17:30;;;;;;;16.50;7.65;;;;;;;;;;5066498;28;20025;-56
2024/01/11 14:19:57;;;;;;;14.80;7.70;;;;;;;;;;5066010;28;20043;-51
2024/01/11 14:22:25;;;;;;;19.50;7.70;;;;;;;;;;5066277;28;20032;-51
2024/01/11 14:24:52;;;;;;;12.93;7.32;;;;;;;;;;5066130;28;20317;-58
2024/01/11 14:27:18;;;;;;;13.60;7.43;;;;;;;;;;5066249;28;20059;-52